Time;durP1;ratioP1;P1;durP2;ratioP2;P2;SDS_P1;SDS_P2;PMS_P1;PMS_P2;Temp;Humidity;BMP_temperature;BMP_pressure;BME280_temperature;BME280_humidity;BME280_pressure;Samples;Min_cycle;Max_cycle;Signal;HPM_P1;HPM_P2
2022/03/27 00:02:09;;;;;;;27.87;20.60;;;11.80;1.00;;;;;;6192898;23;20134;-86
2022/03/27 00:04:41;;;;;;;27.83;20.23;;;11.80;1.00;;;;;;6189642;23;20568;-84
2022/03/27 00:07:07;;;;;;;29.60;19.87;;;11.80;1.00;;;;;;6189048;23;20138;-85
2022/03/27 00:09:34;;;;;;;26.53;19.37;;;11.70;1.00;;;;;;6189121;23;20138;-86
2022/03/27 00:12:00;;;;;;;28.77;19.80;;;11.70;1.00;;;;;;6188765;23;20134;-86
2022/03/27 00:14:25;;;;;;;25.33;20.47;;;11.70;1.00;;;;;;6189806;23;20142;-84
2022/03/27 00:16:52;;;;;;;26.07;18.60;;;11.80;1.00;;;;;;6188607;23;20150;-85
2022/03/27 00:19:17;;;;;;;24.93;18.77;;;11.70;1.00;;;;;;6195442;23;20134;-79
2022/03/27 00:21:44;;;;;;;21.63;18.50;;;11.80;1.00;;;;;;6181362;22;20157;-81
2022/03/27 00:24:10;;;;;;;23.40;18.17;;;11.70;1.00;;;;;;6210163;22;20204;-85
2022/03/27 00:26:36;;;;;;;23.40;18.70;;;11.80;1.00;;;;;;6205790;23;20150;-85
2022/03/27 00:29:05;;;;;;;21.63;17.13;;;11.80;1.00;;;;;;6193076;23;20190;-84
2022/03/27 00:31:37;;;;;;;24.47;18.67;;;11.80;1.00;;;;;;6195849;23;20134;-85
2022/03/27 00:34:05;;;;;;;22.57;17.13;;;11.70;1.00;;;;;;6195826;23;20566;-84
2022/03/27 00:36:32;;;;;;;22.97;18.33;;;11.60;1.00;;;;;;6177834;23;20154;-85
2022/03/27 00:38:58;;;;;;;24.07;17.90;;;11.70;1.00;;;;;;6205251;23;20168;-84
2022/03/27 00:41:24;;;;;;;22.47;17.10;;;11.60;1.00;;;;;;6206760;23;20164;-79
2022/03/27 00:43:50;;;;;;;24.00;19.27;;;11.70;1.00;;;;;;6204538;23;20174;-78
2022/03/27 00:46:19;;;;;;;23.43;17.80;;;11.60;1.00;;;;;;6200560;23;20172;-80
2022/03/27 00:48:52;;;;;;;22.90;18.70;;;11.50;1.00;;;;;;6193291;23;20154;-86
2022/03/27 00:51:21;;;;;;;22.30;17.70;;;11.60;1.00;;;;;;6188457;23;20568;-86
2022/03/27 00:53:46;;;;;;;23.70;17.23;;;11.50;1.00;;;;;;6189303;23;20198;-87
2022/03/27 00:56:12;;;;;;;23.03;16.40;;;11.50;1.00;;;;;;6188229;23;20142;-85
2022/03/27 00:58:38;;;;;;;21.73;17.47;;;11.40;1.00;;;;;;6189660;23;20158;-85
2022/03/27 01:01:11;;;;;;;24.27;16.63;;;11.40;1.00;;;;;;6190021;23;20138;-84
2022/03/27 01:03:37;;;;;;;20.67;15.87;;;11.30;1.00;;;;;;6189120;23;20177;-82
2022/03/27 01:06:03;;;;;;;18.40;15.70;;;11.30;1.00;;;;;;6193030;23;20160;-82
2022/03/27 01:11:21;;;;;;;21.17;15.63;;;11.20;1.00;;;;;;6193083;23;20240;-83
2022/03/27 01:13:55;;;;;;;20.10;15.00;;;11.30;1.00;;;;;;6188431;23;20172;-84
2022/03/27 01:16:55;;;;;;;26.70;18.37;;;11.20;1.00;;;;;;6188486;23;20165;-83
2022/03/27 01:19:21;;;;;;;18.57;15.97;;;11.20;1.00;;;;;;6193217;23;20130;-86
2022/03/27 01:21:47;;;;;;;19.67;15.90;;;11.10;1.00;;;;;;6168016;23;20150;-85
2022/03/27 01:24:16;;;;;;;18.73;14.37;;;11.00;1.00;;;;;;6191937;23;20624;-85
2022/03/27 01:26:41;;;;;;;20.73;16.53;;;11.00;1.00;;;;;;6190689;23;20213;-77
2022/03/27 01:29:07;;;;;;;23.17;14.97;;;11.20;1.00;;;;;;6192599;23;20146;-85
2022/03/27 01:31:34;;;;;;;20.37;15.23;;;10.90;1.00;;;;;;6169522;23;20173;-85
2022/03/27 01:34:00;;;;;;;18.87;14.07;;;11.00;1.00;;;;;;6201934;23;20148;-80
2022/03/27 01:36:31;;;;;;;20.20;14.63;;;10.90;1.00;;;;;;6183237;23;20165;-80
2022/03/27 01:38:57;;;;;;;20.93;15.57;;;10.90;1.00;;;;;;6183571;23;20146;-80
2022/03/27 01:41:25;;;;;;;21.00;15.17;;;10.90;1.00;;;;;;6185082;23;20168;-84
2022/03/27 01:43:51;;;;;;;19.73;14.90;;;10.90;1.00;;;;;;6210452;23;20157;-81
2022/03/27 01:46:17;;;;;;;19.97;15.13;;;10.70;1.00;;;;;;6208686;23;20166;-79
2022/03/27 01:48:43;;;;;;;19.37;14.40;;;10.60;1.00;;;;;;6211500;23;20134;-84
2022/03/27 01:51:09;;;;;;;24.03;15.17;;;10.60;1.00;;;;;;6209835;23;20122;-76
2022/03/27 01:53:37;;;;;;;19.93;14.57;;;10.60;1.00;;;;;;6212297;23;20138;-82
2022/03/27 01:56:04;;;;;;;17.00;13.97;;;10.60;1.00;;;;;;6209467;23;20138;-81
2022/03/27 01:58:36;;;;;;;18.47;14.10;;;10.60;1.00;;;;;;6204416;23;20205;-85
2022/03/27 02:01:06;;;;;;;17.13;14.20;;;10.70;1.00;;;;;;6200122;23;20148;-84
2022/03/27 02:03:31;;;;;;;17.30;13.87;;;10.60;1.00;;;;;;6186372;23;20182;-83
2022/03/27 02:05:58;;;;;;;20.07;14.30;;;10.60;2.40;;;;;;6187391;23;20173;-82
2022/03/27 02:08:27;;;;;;;18.60;13.80;;;10.60;3.10;;;;;;6188521;23;20138;-83
2022/03/27 02:10:53;;;;;;;17.93;13.77;;;10.60;5.00;;;;;;6187177;23;20185;-85
2022/03/27 02:13:19;;;;;;;21.43;13.83;;;10.50;7.90;;;;;;6186706;23;20162;-86
2022/03/27 02:15:48;;;;;;;22.80;15.07;;;10.50;10.70;;;;;;6186652;23;20468;-86
2022/03/27 02:18:16;;;;;;;17.67;14.10;;;10.50;10.30;;;;;;6187632;23;20562;-82
2022/03/27 02:20:44;;;;;;;18.47;15.17;;;10.60;12.90;;;;;;6186762;23;20177;-83
2022/03/27 02:23:13;;;;;;;17.73;13.30;;;10.50;12.60;;;;;;6160136;23;20194;-85
2022/03/27 02:25:39;;;;;;;15.60;13.10;;;10.40;12.30;;;;;;6186670;23;20138;-86
2022/03/27 02:28:06;;;;;;;19.53;13.37;;;10.40;14.50;;;;;;6187351;23;20145;-85
2022/03/27 02:30:32;;;;;;;18.03;13.63;;;10.40;17.00;;;;;;6187146;23;20162;-86
2022/03/27 02:32:58;;;;;;;19.67;14.03;;;10.40;17.30;;;;;;6185985;23;20192;-84
2022/03/27 02:35:24;;;;;;;18.10;13.70;;;10.40;16.70;;;;;;6186141;23;20160;-82
2022/03/27 02:37:50;;;;;;;18.17;13.20;;;10.40;18.10;;;;;;6187162;23;20149;-84
2022/03/27 02:40:16;;;;;;;17.70;13.87;;;10.40;18.40;;;;;;6186856;23;20532;-84
2022/03/27 02:42:42;;;;;;;19.50;14.03;;;10.40;19.20;;;;;;6186990;23;20220;-85
2022/03/27 02:45:09;;;;;;;17.13;13.23;;;10.30;21.70;;;;;;6186470;23;20174;-84
2022/03/27 02:47:35;;;;;;;17.07;12.87;;;10.30;24.70;;;;;;6186991;23;20134;-85
2022/03/27 02:50:04;;;;;;;17.30;12.93;;;10.20;25.70;;;;;;6188067;23;20450;-85
2022/03/27 02:52:30;;;;;;;18.90;13.30;;;10.20;27.50;;;;;;6187202;23;20130;-86
2022/03/27 02:54:57;;;;;;;19.33;13.17;;;10.20;28.90;;;;;;6186277;23;20141;-80
2022/03/27 02:57:23;;;;;;;16.83;14.07;;;10.30;29.70;;;;;;6175606;23;20142;-76
2022/03/27 02:59:52;;;;;;;17.67;13.33;;;10.20;29.40;;;;;;6199340;23;20150;-82
2022/03/27 03:02:19;;;;;;;18.57;13.40;;;10.20;31.30;;;;;;6193081;23;20154;-85
2022/03/27 03:04:44;;;;;;;17.60;13.63;;;10.20;32.10;;;;;;6186091;23;20176;-83
2022/03/27 03:07:10;;;;;;;17.67;13.30;;;10.10;35.20;;;;;;6186771;23;20586;-87
2022/03/27 03:09:37;;;;;;;16.87;13.20;;;10.10;36.20;;;;;;6187644;23;20176;-78
2022/03/27 03:12:04;;;;;;;17.20;13.37;;;10.10;38.00;;;;;;6186738;23;20130;-84
2022/03/27 03:14:29;;;;;;;19.47;14.47;;;10.10;40.30;;;;;;6186881;23;20165;-83
2022/03/27 03:16:55;;;;;;;18.73;13.13;;;10.00;40.90;;;;;;6188079;23;20161;-83
2022/03/27 03:19:21;;;;;;;19.20;14.20;;;10.00;42.70;;;;;;6190411;23;20200;-87
2022/03/27 03:21:47;;;;;;;18.73;14.10;;;10.00;43.30;;;;;;6197810;23;20118;-76
2022/03/27 03:24:13;;;;;;;16.17;13.27;;;9.90;45.50;;;;;;6213298;23;20161;-79
2022/03/27 03:26:38;;;;;;;18.63;13.60;;;9.90;47.30;;;;;;6172206;23;20146;-84
2022/03/27 03:29:04;;;;;;;19.00;14.10;;;9.90;47.50;;;;;;6194880;23;20138;-86
2022/03/27 03:31:33;;;;;;;19.57;13.23;;;9.80;48.80;;;;;;6189946;23;20561;-85
2022/03/27 03:33:59;;;;;;;18.10;13.27;;;9.80;51.20;;;;;;6188963;23;20475;-83
2022/03/27 03:36:24;;;;;;;17.03;13.00;;;9.80;52.90;;;;;;6189062;23;20149;-80
2022/03/27 03:38:51;;;;;;;18.33;13.83;;;9.70;54.60;;;;;;6192491;23;20162;-81
2022/03/27 03:41:17;;;;;;;19.13;14.17;;;9.70;55.00;;;;;;6192448;23;20509;-84
2022/03/27 03:43:43;;;;;;;19.13;13.90;;;9.80;55.60;;;;;;6196477;23;20177;-86
2022/03/27 03:46:10;;;;;;;20.67;14.33;;;9.70;55.70;;;;;;6208109;22;20191;-82
2022/03/27 03:48:36;;;;;;;15.30;12.30;;;9.80;57.50;;;;;;6215092;23;20126;-84
2022/03/27 03:51:02;;;;;;;18.40;12.97;;;9.70;57.20;;;;;;6199369;23;20150;-85
2022/03/27 03:53:28;;;;;;;17.37;13.30;;;9.70;59.10;;;;;;6194337;23;20587;-81
2022/03/27 03:56:00;;;;;;;15.93;13.00;;;9.60;61.50;;;;;;6211797;22;20216;-81
2022/03/27 03:58:32;;;;;;;17.00;13.23;;;9.60;62.20;;;;;;6201272;22;20164;-84
2022/03/27 04:01:03;;;;;;;20.97;13.43;;;9.50;64.00;;;;;;6196636;23;20133;-85
2022/03/27 04:03:31;;;;;;;19.23;13.47;;;9.50;65.40;;;;;;6162354;23;20509;-85
2022/03/27 04:05:56;;;;;;;16.83;13.20;;;9.50;67.70;;;;;;6187552;23;20598;-84
2022/03/27 04:08:22;;;;;;;18.53;14.17;;;9.40;68.40;;;;;;6189487;23;20138;-86
2022/03/27 04:10:48;;;;;;;15.83;12.23;;;9.40;70.60;;;;;;6194648;23;20138;-80
2022/03/27 04:13:14;;;;;;;15.97;13.03;;;9.40;71.60;;;;;;6210393;23;20177;-85
2022/03/27 04:15:41;;;;;;;18.27;13.80;;;9.40;72.90;;;;;;6195512;23;20170;-85
2022/03/27 04:18:09;;;;;;;18.17;13.30;;;9.30;74.10;;;;;;6190564;23;20138;-84
2022/03/27 04:20:35;;;;;;;18.53;13.97;;;9.30;75.50;;;;;;6189026;23;20149;-86
2022/03/27 04:23:01;;;;;;;18.97;14.17;;;9.30;77.40;;;;;;6188308;23;20165;-85
2022/03/27 04:25:28;;;;;;;18.30;12.80;;;9.40;77.40;;;;;;6188211;23;20201;-84
2022/03/27 04:27:54;;;;;;;19.50;13.23;;;9.30;77.90;;;;;;6190106;23;20181;-83
2022/03/27 04:30:20;;;;;;;17.40;13.03;;;9.30;80.20;;;;;;6191747;23;20467;-82
2022/03/27 04:32:47;;;;;;;19.33;13.50;;;9.20;80.30;;;;;;6163822;23;20460;-85
2022/03/27 04:35:13;;;;;;;17.03;13.53;;;9.30;82.10;;;;;;6187709;23;20158;-86
2022/03/27 04:37:42;;;;;;;17.50;13.53;;;9.20;83.50;;;;;;6188067;23;20235;-83
2022/03/27 04:40:10;;;;;;;18.00;12.93;;;9.20;84.80;;;;;;6189238;23;20138;-84
2022/03/27 04:42:36;;;;;;;20.53;13.90;;;9.10;91.50;;;;;;6196231;23;20134;-84
2022/03/27 04:45:02;;;;;;;19.43;14.10;;;9.00;93.20;;;;;;6203280;22;20157;-85
2022/03/27 04:47:28;;;;;;;18.87;14.53;;;9.00;94.10;;;;;;6205349;23;20161;-86
2022/03/27 04:49:53;;;;;;;20.57;14.33;;;9.00;94.70;;;;;;6209000;23;20134;-76
2022/03/27 04:52:19;;;;;;;21.73;14.63;;;9.00;95.30;;;;;;6171932;23;20161;-84
2022/03/27 04:54:48;;;;;;;17.83;14.13;;;9.00;96.20;;;;;;6192862;23;20138;-79
2022/03/27 04:57:34;;;;;;;19.30;14.77;;;9.00;96.60;;;;;;6189876;23;20208;-83
2022/03/27 05:00:10;;;;;;;17.63;13.57;;;8.90;96.90;;;;;;6188147;23;20142;-78
2022/03/27 05:02:40;;;;;;;20.30;14.27;;;8.90;97.30;;;;;;6187251;23;20180;-85
2022/03/27 05:05:08;;;;;;;18.70;14.23;;;8.90;97.70;;;;;;6186723;23;20162;-83
2022/03/27 05:07:36;;;;;;;17.90;14.13;;;8.90;98.20;;;;;;6187098;23;20142;-83
2022/03/27 05:10:03;;;;;;;20.70;15.30;;;8.90;98.70;;;;;;6206849;23;20149;-78
2022/03/27 05:12:29;;;;;;;20.10;15.23;;;8.90;98.90;;;;;;6202045;23;20185;-78
2022/03/27 05:14:56;;;;;;;21.10;15.60;;;8.90;99.30;;;;;;6195483;23;20452;-77
2022/03/27 05:17:22;;;;;;;18.83;14.80;;;8.80;99.70;;;;;;6196867;23;20141;-84
2022/03/27 05:19:48;;;;;;;18.80;16.03;;;8.80;99.90;;;;;;6209352;23;20209;-74
2022/03/27 05:22:14;;;;;;;22.93;14.67;;;8.80;99.90;;;;;;6210423;23;20471;-74
2022/03/27 05:24:40;;;;;;;19.77;15.43;;;8.80;99.90;;;;;;6207591;23;20181;-83
2022/03/27 05:27:07;;;;;;;21.97;15.17;;;8.70;99.90;;;;;;6210778;23;20134;-75
2022/03/27 05:29:32;;;;;;;22.57;14.90;;;8.80;99.90;;;;;;6208481;23;20157;-77
2022/03/27 05:31:58;;;;;;;22.23;16.43;;;8.80;99.90;;;;;;6208463;23;20237;-75
2022/03/27 05:34:24;;;;;;;19.20;15.23;;;8.80;99.90;;;;;;6209749;23;20142;-75
2022/03/27 05:36:50;;;;;;;19.40;14.37;;;8.80;99.90;;;;;;6210137;23;20160;-78
2022/03/27 05:39:17;;;;;;;22.60;14.43;;;8.70;99.90;;;;;;6211196;23;20145;-83
2022/03/27 05:41:44;;;;;;;18.57;15.13;;;8.70;99.90;;;;;;6210576;23;20118;-77
2022/03/27 05:44:10;;;;;;;19.67;15.10;;;8.70;99.90;;;;;;6211575;23;20233;-76
2022/03/27 05:46:36;;;;;;;19.83;15.70;;;8.70;99.90;;;;;;6206356;23;20145;-78
2022/03/27 05:49:04;;;;;;;20.70;15.10;;;8.70;99.90;;;;;;6186671;23;20139;-81
2022/03/27 05:51:31;;;;;;;23.93;16.37;;;8.60;99.90;;;;;;6185469;23;20562;-79
2022/03/27 05:53:57;;;;;;;21.87;16.30;;;8.70;99.90;;;;;;6212741;22;20150;-78
2022/03/27 05:56:22;;;;;;;22.70;17.07;;;8.70;99.90;;;;;;6213129;22;20173;-77
2022/03/27 05:58:48;;;;;;;22.37;16.10;;;8.70;99.90;;;;;;6208630;23;20124;-82
2022/03/27 06:01:14;;;;;;;22.20;16.57;;;8.70;99.90;;;;;;6212002;23;20147;-81
2022/03/27 06:03:41;;;;;;;22.77;16.23;;;8.80;99.90;;;;;;6213294;22;20165;-78
2022/03/27 06:06:06;;;;;;;21.57;15.83;;;8.70;99.90;;;;;;6212291;22;20145;-77
2022/03/27 06:08:33;;;;;;;23.47;17.60;;;8.80;99.90;;;;;;6211152;22;20162;-83
2022/03/27 06:10:59;;;;;;;27.40;18.57;;;8.70;99.90;;;;;;6211546;22;20122;-78
2022/03/27 06:13:26;;;;;;;25.77;18.90;;;8.80;99.90;;;;;;6210160;23;20186;-84
2022/03/27 06:15:54;;;;;;;26.33;19.13;;;8.80;99.90;;;;;;6209400;22;20176;-77
2022/03/27 06:18:26;;;;;;;25.67;18.70;;;8.80;99.90;;;;;;6208190;23;20216;-83
2022/03/27 06:27:48;;;;;;;28.53;19.83;;;8.80;99.90;;;;;;6200128;23;20161;-81
2022/03/27 06:30:22;;;;;;;33.80;20.67;;;8.90;99.90;;;;;;6201296;23;20134;-84
2022/03/27 06:32:59;;;;;;;32.03;21.93;;;8.70;99.90;;;;;;6209629;22;20122;-75
2022/03/27 06:35:25;;;;;;;29.47;20.23;;;8.70;99.90;;;;;;6183639;23;20165;-84
2022/03/27 06:38:00;;;;;;;36.27;23.47;;;8.60;99.90;;;;;;6206348;23;20146;-85
2022/03/27 06:40:30;;;;;;;35.37;22.57;;;8.60;99.90;;;;;;6194759;23;20138;-85
2022/03/27 06:43:05;;;;;;;34.70;24.20;;;8.50;99.90;;;;;;6193163;23;20264;-81
2022/03/27 06:45:31;;;;;;;36.10;25.00;;;8.60;99.90;;;;;;6197951;23;20134;-76
2022/03/27 06:47:57;;;;;;;36.50;23.93;;;8.60;99.90;;;;;;6207006;23;20141;-84
2022/03/27 06:50:25;;;;;;;34.67;23.73;;;8.60;99.90;;;;;;6200620;23;20150;-76
2022/03/27 06:52:52;;;;;;;39.60;24.90;;;8.50;99.90;;;;;;6196542;23;20161;-84
2022/03/27 06:55:22;;;;;;;42.93;28.67;;;8.50;99.90;;;;;;6192833;23;20145;-86
2022/03/27 06:58:20;;;;;;;39.33;25.47;;;8.50;99.90;;;;;;6190808;23;20134;-85
2022/03/27 07:03:30;;;;;;;42.50;27.93;;;8.40;99.90;;;;;;6186680;23;20216;-82
2022/03/27 07:05:56;;;;;;;44.97;27.67;;;8.40;99.90;;;;;;6163761;23;20654;-85
2022/03/27 07:08:22;;;;;;;42.30;25.77;;;8.40;99.90;;;;;;6191804;23;20142;-86
2022/03/27 07:10:48;;;;;;;40.23;27.23;;;8.50;99.90;;;;;;6209142;23;20400;-83
2022/03/27 07:13:20;;;;;;;44.23;28.33;;;8.50;99.90;;;;;;6212925;22;20150;-80
2022/03/27 07:15:47;;;;;;;42.73;27.03;;;8.50;99.90;;;;;;6210780;23;20238;-82
2022/03/27 07:18:13;;;;;;;46.50;27.63;;;8.50;99.90;;;;;;6206848;23;20130;-77
2022/03/27 07:20:46;;;;;;;45.63;29.13;;;8.50;99.90;;;;;;6200598;23;20138;-85
2022/03/27 07:23:24;;;;;;;49.87;31.53;;;8.60;99.90;;;;;;6205374;23;20170;-84
2022/03/27 07:25:56;;;;;;;47.43;29.13;;;8.50;99.90;;;;;;6204280;23;20138;-81
2022/03/27 07:28:25;;;;;;;45.83;29.90;;;8.60;99.90;;;;;;6195964;23;20137;-86
2022/03/27 07:30:53;;;;;;;50.50;30.07;;;8.60;99.90;;;;;;6193559;23;20146;-88
2022/03/27 07:33:22;;;;;;;46.53;29.63;;;8.70;99.90;;;;;;6190802;23;20158;-86
2022/03/27 07:35:48;;;;;;;47.47;30.93;;;8.80;99.90;;;;;;6190182;23;20233;-85
2022/03/27 07:38:15;;;;;;;55.07;31.07;;;8.80;99.90;;;;;;6190069;23;20196;-81
2022/03/27 07:40:45;;;;;;;52.53;31.07;;;8.90;99.90;;;;;;6187138;23;20633;-79
2022/03/27 07:43:10;;;;;;;51.63;31.20;;;8.90;99.90;;;;;;6188398;23;20173;-84
2022/03/27 07:45:37;;;;;;;54.90;31.63;;;8.90;99.90;;;;;;6160790;23;20154;-85
2022/03/27 07:48:04;;;;;;;48.77;30.37;;;8.80;99.90;;;;;;6188650;23;20138;-86
2022/03/27 07:50:31;;;;;;;50.90;32.37;;;8.90;99.90;;;;;;6185881;23;20570;-85
2022/03/27 07:52:59;;;;;;;59.77;34.87;;;9.00;99.90;;;;;;6187324;23;20563;-83
2022/03/27 07:55:24;;;;;;;52.33;33.37;;;9.00;99.90;;;;;;6189645;23;20146;-85
2022/03/27 07:57:50;;;;;;;60.70;35.13;;;9.00;99.90;;;;;;6168596;23;20146;-86
2022/03/27 08:00:17;;;;;;;61.30;35.40;;;9.00;99.90;;;;;;6199194;23;20144;-83
2022/03/27 08:02:45;;;;;;;54.73;33.97;;;8.90;99.90;;;;;;6198045;23;20197;-84
2022/03/27 08:05:12;;;;;;;56.07;32.97;;;9.00;99.90;;;;;;6190739;23;20176;-84
2022/03/27 08:07:38;;;;;;;62.53;36.10;;;8.90;99.90;;;;;;6188408;23;20153;-87
2022/03/27 08:10:05;;;;;;;54.20;34.53;;;8.90;99.90;;;;;;6188432;23;20142;-86
2022/03/27 08:12:31;;;;;;;59.80;36.30;;;8.90;99.90;;;;;;6189743;23;20498;-86
2022/03/27 08:14:57;;;;;;;61.53;36.90;;;8.90;99.90;;;;;;6188075;23;20245;-86
2022/03/27 08:17:23;;;;;;;64.30;36.90;;;8.90;99.90;;;;;;6187668;23;20518;-84
2022/03/27 08:19:49;;;;;;;55.97;36.60;;;8.90;99.90;;;;;;6188510;23;20149;-86
2022/03/27 08:22:16;;;;;;;53.57;35.53;;;8.90;99.90;;;;;;6187772;23;20165;-77
2022/03/27 08:24:43;;;;;;;54.73;34.63;;;9.00;99.90;;;;;;6161285;23;20197;-87
2022/03/27 08:27:09;;;;;;;52.90;33.50;;;9.10;99.90;;;;;;6187482;23;20133;-86
2022/03/27 08:29:42;;;;;;;57.47;34.63;;;9.00;99.90;;;;;;6188198;23;20142;-79
2022/03/27 08:32:12;;;;;;;50.50;34.07;;;9.10;99.90;;;;;;6194334;23;20133;-87
2022/03/27 08:34:40;;;;;;;54.87;35.37;;;9.00;99.90;;;;;;6192413;23;20169;-86
2022/03/27 08:37:08;;;;;;;57.20;37.10;;;9.10;99.90;;;;;;6188685;23;20157;-80
2022/03/27 08:39:34;;;;;;;54.43;34.93;;;9.10;99.90;;;;;;6195331;23;20146;-84
2022/03/27 08:42:00;;;;;;;58.47;37.00;;;9.20;99.90;;;;;;6211106;23;20134;-81
2022/03/27 08:44:28;;;;;;;57.83;37.63;;;9.30;99.90;;;;;;6209116;23;20201;-84
2022/03/27 08:46:55;;;;;;;55.47;36.77;;;9.30;99.90;;;;;;6203725;23;20193;-81
2022/03/27 08:49:25;;;;;;;55.33;36.27;;;9.30;99.90;;;;;;6195859;23;20134;-84
2022/03/27 08:52:09;;;;;;;58.43;37.73;;;9.30;99.90;;;;;;6196455;23;20142;-84
2022/03/27 08:54:59;;;;;;;56.90;36.30;;;9.40;99.90;;;;;;6198514;23;20134;-83
2022/03/27 08:57:37;;;;;;;56.07;35.90;;;9.50;99.90;;;;;;6211826;22;20133;-77
2022/03/27 09:00:04;;;;;;;54.77;37.57;;;9.50;99.90;;;;;;6208703;23;20141;-79
2022/03/27 09:02:30;;;;;;;52.10;35.33;;;9.50;99.90;;;;;;6205062;23;20141;-83
2022/03/27 09:04:57;;;;;;;54.53;36.10;;;9.60;99.90;;;;;;6199179;23;20165;-85
2022/03/27 09:07:35;;;;;;;53.87;36.50;;;9.50;99.90;;;;;;6203525;23;20590;-78
2022/03/27 09:10:09;;;;;;;54.07;36.03;;;9.50;99.90;;;;;;6191920;23;20130;-78
2022/03/27 09:12:35;;;;;;;46.23;33.13;;;9.60;99.90;;;;;;6190947;23;20222;-84
2022/03/27 09:15:04;;;;;;;46.80;33.57;;;9.60;99.90;;;;;;6193013;23;20166;-83
2022/03/27 09:17:30;;;;;;;49.60;33.87;;;9.70;99.90;;;;;;6192801;23;20142;-85
2022/03/27 09:19:56;;;;;;;50.73;34.17;;;9.70;99.90;;;;;;6193436;23;20138;-85
2022/03/27 09:22:32;;;;;;;48.90;33.80;;;9.80;99.90;;;;;;6192849;23;20146;-84
2022/03/27 09:25:01;;;;;;;53.37;34.77;;;9.80;99.90;;;;;;6193211;23;20288;-84
2022/03/27 09:27:31;;;;;;;49.43;35.27;;;10.10;99.90;;;;;;6193020;23;20200;-85
2022/03/27 09:30:07;;;;;;;50.87;33.87;;;10.10;99.90;;;;;;6194348;23;20196;-82
2022/03/27 09:32:45;;;;;;;49.37;34.03;;;10.00;99.90;;;;;;6199259;23;20133;-83
2022/03/27 09:35:14;;;;;;;48.40;34.77;;;10.30;99.90;;;;;;6172521;23;20154;-83
2022/03/27 09:37:47;;;;;;;51.07;33.57;;;10.20;99.90;;;;;;6189814;23;20475;-84
2022/03/27 09:40:16;;;;;;;49.80;33.77;;;10.30;99.90;;;;;;6161855;23;20170;-81
2022/03/27 09:42:43;;;;;;;51.60;33.50;;;10.10;99.90;;;;;;6187707;23;20214;-84
2022/03/27 09:45:12;;;;;;;51.17;33.90;;;10.00;99.90;;;;;;6188626;23;20142;-84
2022/03/27 09:47:40;;;;;;;54.83;35.33;;;9.90;99.90;;;;;;6188535;23;20138;-82
2022/03/27 09:50:07;;;;;;;54.20;36.07;;;10.00;99.90;;;;;;6190210;23;20575;-83
2022/03/27 09:52:33;;;;;;;47.33;32.53;;;10.00;99.90;;;;;;6190304;23;20575;-83
2022/03/27 09:55:09;;;;;;;51.07;34.53;;;10.00;99.90;;;;;;6190334;23;20450;-81
2022/03/27 09:57:37;;;;;;;48.37;34.50;;;10.10;99.90;;;;;;6188839;23;20138;-81
2022/03/27 10:00:18;;;;;;;49.70;35.40;;;10.20;99.90;;;;;;6202575;23;20130;-78
2022/03/27 10:02:47;;;;;;;52.87;36.50;;;10.20;99.90;;;;;;6206320;23;20145;-85
2022/03/27 10:05:14;;;;;;;55.23;38.30;;;10.10;99.90;;;;;;6196168;23;20518;-82
2022/03/27 10:07:56;;;;;;;57.87;38.97;;;10.20;99.90;;;;;;6189655;23;20149;-83
2022/03/27 10:10:24;;;;;;;58.87;39.03;;;10.30;99.90;;;;;;6194328;23;20204;-84
2022/03/27 10:12:52;;;;;;;57.70;37.50;;;10.30;99.90;;;;;;6193325;23;20162;-83
2022/03/27 10:15:21;;;;;;;59.17;39.53;;;10.30;99.90;;;;;;6201847;23;20173;-76
2022/03/27 10:17:53;;;;;;;58.13;39.00;;;10.30;99.90;;;;;;6212267;22;20138;-83
2022/03/27 10:20:21;;;;;;;54.77;36.57;;;10.40;99.90;;;;;;6210669;22;20138;-81
2022/03/27 10:22:56;;;;;;;58.67;38.73;;;10.50;99.90;;;;;;6210667;23;20126;-83
2022/03/27 10:25:42;;;;;;;54.50;37.20;;;10.50;99.90;;;;;;6208388;23;20137;-82
2022/03/27 10:28:09;;;;;;;47.23;33.33;;;10.50;99.90;;;;;;6202325;23;20217;-86
2022/03/27 10:30:35;;;;;;;47.47;33.00;;;10.50;99.90;;;;;;6197329;23;20189;-86
2022/03/27 10:33:09;;;;;;;47.60;32.33;;;10.60;99.90;;;;;;6198057;23;20138;-83
2022/03/27 10:35:58;;;;;;;47.83;32.40;;;10.60;99.90;;;;;;6192434;23;20146;-86
2022/03/27 10:38:47;;;;;;;53.57;33.70;;;10.60;99.90;;;;;;6198062;23;20138;-84
2022/03/27 10:41:21;;;;;;;53.07;35.43;;;10.70;99.90;;;;;;6207666;23;20165;-82
2022/03/27 10:44:11;;;;;;;55.43;36.23;;;10.80;99.90;;;;;;6206150;23;20174;-82
2022/03/27 10:46:37;;;;;;;57.87;36.47;;;10.80;99.90;;;;;;6204786;23;20146;-77
2022/03/27 10:49:17;;;;;;;61.47;40.13;;;10.70;99.90;;;;;;6200862;23;20145;-81
2022/03/27 10:51:47;;;;;;;55.83;37.93;;;10.50;99.90;;;;;;6196369;23;20142;-79
2022/03/27 10:54:18;;;;;;;58.63;38.40;;;10.50;99.90;;;;;;6194011;23;20134;-80
2022/03/27 10:56:48;;;;;;;56.20;38.03;;;10.50;99.90;;;;;;6200022;23;20207;-81
2022/03/27 10:59:16;;;;;;;52.63;34.13;;;10.60;99.90;;;;;;6169842;23;20142;-84
2022/03/27 11:01:55;;;;;;;53.97;36.67;;;10.60;99.90;;;;;;6205349;23;20563;-84
2022/03/27 11:04:41;;;;;;;52.37;35.90;;;10.70;99.90;;;;;;6199407;23;20652;-84
2022/03/27 11:07:15;;;;;;;48.40;33.27;;;10.80;99.90;;;;;;6193542;23;20137;-86
2022/03/27 11:09:44;;;;;;;48.17;32.83;;;10.90;99.90;;;;;;6194433;23;20134;-79
2022/03/27 11:12:25;;;;;;;49.00;31.77;;;10.80;99.90;;;;;;6188436;23;20146;-86
2022/03/27 11:15:03;;;;;;;52.83;33.53;;;10.70;99.90;;;;;;6188293;23;20161;-86
2022/03/27 11:17:41;;;;;;;53.73;36.27;;;10.60;99.90;;;;;;6192973;23;20154;-81
2022/03/27 11:20:30;;;;;;;52.20;36.53;;;10.60;99.90;;;;;;6191348;23;20141;-87
2022/03/27 11:22:59;;;;;;;49.60;35.03;;;10.70;99.90;;;;;;6177685;23;20173;-86
2022/03/27 11:25:34;;;;;;;50.37;34.27;;;10.80;99.90;;;;;;6174670;23;20150;-87
2022/03/27 11:28:16;;;;;;;49.03;33.57;;;10.90;99.90;;;;;;6175569;23;20157;-82
2022/03/27 11:30:49;;;;;;;44.13;29.87;;;11.00;99.90;;;;;;6205153;23;20134;-85
2022/03/27 11:33:23;;;;;;;45.80;31.10;;;11.10;99.90;;;;;;6200159;23;20157;-86
2022/03/27 11:36:01;;;;;;;47.43;32.20;;;11.20;99.70;;;;;;6197619;23;20474;-84
2022/03/27 11:38:32;;;;;;;50.07;31.57;;;11.30;99.10;;;;;;6175068;23;20146;-84
2022/03/27 11:41:21;;;;;;;53.67;32.73;;;11.20;98.90;;;;;;6202165;23;20138;-86
2022/03/27 11:43:47;;;;;;;49.60;32.63;;;11.20;99.10;;;;;;6190281;23;20216;-85
2022/03/27 11:46:29;;;;;;;49.93;33.20;;;11.30;99.40;;;;;;6190988;23;20162;-85
2022/03/27 11:48:57;;;;;;;52.17;32.97;;;11.30;99.00;;;;;;6163720;23;20228;-85
2022/03/27 11:51:24;;;;;;;50.60;30.90;;;11.30;98.90;;;;;;6189599;23;20164;-84
2022/03/27 11:53:54;;;;;;;47.43;31.23;;;11.30;99.30;;;;;;6190185;23;20134;-86
2022/03/27 11:56:21;;;;;;;45.93;31.27;;;11.40;98.90;;;;;;6189154;23;20138;-83
2022/03/27 11:59:07;;;;;;;48.30;33.43;;;11.20;99.40;;;;;;6190164;23;20134;-84
2022/03/27 12:01:33;;;;;;;51.23;34.63;;;11.30;99.40;;;;;;6163356;23;20459;-87
2022/03/27 12:03:59;;;;;;;53.90;34.27;;;11.20;99.20;;;;;;6164174;23;20182;-87
2022/03/27 12:06:29;;;;;;;50.23;31.57;;;11.30;99.30;;;;;;6190498;23;20138;-88
2022/03/27 12:08:56;;;;;;;46.93;31.03;;;11.10;99.30;;;;;;6192704;23;20205;-83
2022/03/27 12:11:25;;;;;;;46.63;30.77;;;11.20;99.90;;;;;;6192355;23;20477;-84
2022/03/27 12:13:52;;;;;;;46.80;31.40;;;11.30;99.80;;;;;;6190685;23;20181;-89
2022/03/27 12:16:20;;;;;;;49.97;31.83;;;11.30;99.10;;;;;;6190579;23;20150;-87
2022/03/27 12:18:49;;;;;;;47.90;32.33;;;11.20;99.70;;;;;;6191963;23;20149;-83
2022/03/27 12:21:23;;;;;;;54.10;34.90;;;11.10;99.90;;;;;;6190591;23;20158;-87
2022/03/27 12:23:52;;;;;;;50.83;34.03;;;11.10;99.90;;;;;;6164817;23;20178;-86
2022/03/27 12:32:26;;;;;;;50.63;34.30;;;11.50;99.00;;;;;;6188784;23;20168;-86
2022/03/27 12:34:55;;;;;;;67.97;35.73;;;11.80;98.50;;;;;;6187069;23;20130;-83
2022/03/27 12:37:26;;;;;;;51.33;33.80;;;12.00;97.10;;;;;;6186795;23;20137;-85
2022/03/27 12:39:51;;;;;;;54.37;37.03;;;12.10;95.80;;;;;;6189101;23;20134;-79
2022/03/27 12:42:46;;;;;;;44.33;30.50;;;12.20;95.50;;;;;;6189522;23;20134;-89
2022/03/27 12:45:24;;;;;;;50.43;36.00;;;12.10;94.80;;;;;;6190102;23;20651;-87
2022/03/27 12:47:57;;;;;;;44.60;30.27;;;12.20;95.00;;;;;;6190895;23;20177;-79
2022/03/27 12:50:29;;;;;;;49.87;32.13;;;12.10;94.20;;;;;;6191498;23;20137;-90
2022/03/27 12:53:07;;;;;;;46.03;31.57;;;12.20;94.90;;;;;;6188238;23;20130;-88
2022/03/27 12:55:50;;;;;;;48.17;33.53;;;12.20;94.90;;;;;;6198951;23;20142;-84
2022/03/27 12:58:39;;;;;;;47.50;32.27;;;12.10;95.30;;;;;;6196239;23;20220;-84
2022/03/27 13:01:14;;;;;;;51.23;34.90;;;12.00;95.90;;;;;;6201231;23;20154;-80
2022/03/27 13:04:00;;;;;;;49.97;34.03;;;12.20;96.10;;;;;;6202183;23;20514;-88